EW7666 Weather Reports


Display with metric or nautical units.
time (UTC)temp
F
wind
direction
speed
MPH
gust
MPH
rain 1hr
in
rain 24hr
in
rain mn
in
humidity
%
barometer
mb
20180923174323 87 148 2.0 8.0 0.00 6.74 0.85 70 1016.7
20180923174153 87 191 3.0 8.0 0.00 6.74 0.85 70 1016.4
20180923173815 87 155 3.0 8.0 0.00 6.74 0.85 69 1016.7
20180923173654 87 69 3.0 8.0 0.00 6.74 0.85 70 1016.5
20180923173321 87 85 2.0 6.0 0.00 6.74 0.85 72 1016.8
20180923173153 86 343 3.0 6.0 0.00 6.74 0.85 72 1016.7
20180923172827 86 273 2.0 6.0 0.00 6.74 0.85 71 1016.9
20180923172653 86 57 2.0 6.0 0.00 6.74 0.85 72 1016.7
20180923172327 86 227 3.0 6.0 0.00 6.74 0.85 73 1017.0
20180923172154 85 163 2.0 6.0 0.00 6.74 0.85 74 1016.8
20180923171827 85 89 2.0 5.0 0.00 6.74 0.85 73 1017.0
20180923171654 86 123 2.0 6.0 0.00 6.74 0.85 72 1016.8
20180923171330 86 149 2.0 7.0 0.00 6.74 0.85 72 1017.1
20180923171149 86 92 2.0 7.0 0.00 6.74 0.85 71 1016.8
20180923170834 86 113 2.0 8.0 0.00 6.74 0.85 72 1017.1
20180923170649 86 175 3.0 9.0 0.00 6.74 0.85 71 1016.9
20180923170326 86 147 2.0 10.0 0.00 6.74 0.85 72 1017.1
20180923170148 86 127 3.0 10.0 0.00 6.74 0.85 72 1016.9
20180923165832 87 167 4.0 10.0 0.00 6.74 0.85 71 1017.2
20180923165647 87 101 3.0 10.0 0.00 6.74 0.85 70 1017.0
20180923165319 87 184 3.0 8.0 0.00 6.80 0.85 70 1017.2
20180923165147 87 136 3.0 8.0 0.10 6.74 0.85 72 1016.9
20180923164831 86 144 4.0 8.0 0.35 6.80 0.85 73 1017.2
20180923164648 86 122 3.0 8.0 0.70 6.74 0.85 73 1016.9
20180923164336 86 132 3.0 8.0 0.77 6.80 0.85 72 1017.1
20180923164145 86 123 3.0 9.0 0.78 6.75 0.85 73 1017.0
20180923163826 86 131 2.0 9.0 0.79 6.80 0.85 74 1017.3
20180923163645 85 18 3.0 9.0 0.79 6.75 0.85 74 1017.0
20180923163322 85 207 4.0 10.0 0.79 6.80 0.85 75 1017.2
20180923163146 85 127 3.0 10.0 0.79 6.75 0.85 76 1017.1
20180923162819 85 191 3.0 10.0 0.79 6.80 0.85 76 1017.3
20180923162645 85 192 3.0 10.0 0.81 6.75 0.85 75 1017.0
20180923162329 85 259 4.0 10.0 0.81 6.80 0.85 76 1017.2
20180923162145 85 146 2.0 10.0 0.81 6.75 0.85 79 1017.1
20180923161821 84 192 3.0 10.0 0.81 6.80 0.85 80 1017.3
20180923161646 84 144 2.0 7.0 0.81 6.75 0.85 80 1017.0
20180923161322 84 90 2.0 7.0 0.81 6.80 0.85 81 1017.4
20180923161143 84 131 2.0 6.0 0.81 6.75 0.85 80 1017.0
20180923160831 84 124 2.0 5.0 0.82 6.80 0.85 80 1017.4
20180923160641 84 148 2.0 6.0 0.83 6.75 0.85 80 1017.1
20180923160327 84 109 2.0 6.0 0.85 6.80 0.85 80 1017.4
20180923160142 84 94 1.0 6.0 0.85 6.75 0.85 82 1017.1
20180923155814 84 96 1.0 4.0 0.85 6.80 0.85 81 1017.5
20180923155641 84 135 1.0 4.0 0.85 6.80 0.85 81 1017.2
20180923155326 84 26 1.0 3.0 0.84 7.84 0.84 80 1017.5
20180923155138 84 130 2.0 8.0 0.75 7.23 0.78 80 1017.2
20180923154830 84 130 2.0 8.0 0.42 7.42 0.42 80 1017.6
20180923154638 84 69 3.0 8.0 0.15 6.70 0.20 80 1017.3
20180923154313 85 126 4.0 8.0 0.08 7.08 0.08 79 1017.6
20180923154138 85 151 2.0 8.0 0.06 6.73 0.07 79 1017.4
20180923153818 84 333 1.0 8.0 0.06 7.06 0.06 81 1017.5
20180923153635 84 175 2.0 8.0 0.06 6.73 0.06 82 1017.1
20180923153321 84 195 2.0 8.0 0.06 7.06 0.06 81 1017.5
20180923153135 84 86 2.0 8.0 0.06 6.73 0.06 80 1017.2
20180923152813 84 42 3.0 8.0 0.06 7.06 0.06 81 1017.5
20180923152636 84 92 2.0 7.0 0.04 6.71 0.04 82 1017.2
20180923152330 84 136 2.0 7.0 0.04 7.04 0.04 80 1017.5
20180923152135 84 54 2.0 7.0 0.04 6.71 0.04 80 1017.2
20180923151817 84 137 3.0 7.0 0.04 7.04 0.04 81 1017.5
20180923151625 84 124 2.0 7.0 0.04 6.71 0.04 83 1017.2
20180923151322 84 310 2.0 6.0 0.04 7.04 0.04 82 1017.5
20180923151126 84 140 2.0 5.0 0.04 6.72 0.04 83 1017.2
20180923150831 84 168 2.0 7.0 0.03 7.03 0.03 83 1017.5
20180923150623 84 113 2.0 7.0 0.02 6.81 0.02 84 1017.2
20180923150322 83 131 2.0 7.0 0.00 7.00 0.00 83 1017.5
20180923150123 83 126 3.0 8.0 0.00 6.79 0.00 82 1017.2
20180923145817 83 83 1.0 8.0 0.00 7.00 0.00 86 1017.5
20180923145624 83 209 3.0 8.0 0.00 7.00 0.00 85 1017.1
20180923145321 83 95 3.0 9.0 0.00 7.05 0.00 85 1017.4
20180923145123 83 120 3.0 8.0 0.00 7.00 0.00 85 1017.1
20180923144823 83 140 3.0 7.0 0.00 7.05 0.00 84 1017.4
20180923144623 83 132 2.0 7.0 0.00 7.00 0.00 85 1017.0
20180923144335 82 179 2.0 7.0 0.00 7.05 0.00 86 1017.3
20180923144124 82 116 2.0 7.0 0.00 7.00 0.00 85 1017.0
20180923143825 82 107 1.0 7.0 0.00 7.05 0.00 87 1017.4
20180923143623 82 134 2.0 7.0 0.00 7.00 0.00 87 1017.1
20180923143329 82 130 2.0 7.0 0.00 7.05 0.00 87 1017.3
20180923143122 82 111 2.0 6.0 0.00 7.00 0.00 87 1017.0
20180923142813 82 139 2.0 4.0 0.00 7.05 0.00 88 1017.3
20180923142621 82 115 2.0 4.0 0.00 7.00 0.00 89 1017.0
20180923142321 81 178 2.0 4.0 0.00 7.05 0.00 90 1017.2
20180923142121 81 94 1.0 5.0 0.00 7.05 0.00 90 1016.9
20180923141831 81 67 2.0 5.0 0.00 7.05 0.00 90 1017.2
20180923141620 81 132 1.0 5.0 0.00 7.05 0.00 91 1016.9
20180923141332 80 88 1.0 5.0 0.00 7.05 0.00 91 1017.2
20180923141119 80 139 2.0 5.0 0.00 7.05 0.00 91 1016.9
20180923140835 80 133 1.0 5.0 0.00 7.05 0.00 91 1017.2
20180923140620 80 136 2.0 5.0 0.00 7.05 0.00 91 1016.9
20180923140330 80 136 2.0 4.0 0.00 7.05 0.00 91 1017.2
20180923140115 80 120 1.0 3.0 0.00 7.05 0.00 92 1016.8
20180923135819 80 119 1.0 3.0 0.00 7.05 0.00 92 1017.2
20180923135615 79 142 1.0 3.0 0.00 7.05 0.00 92 1016.9
20180923135318 79 131 1.0 3.0 0.00 7.05 0.00 93 1017.2
20180923135115 79 138 1.0 4.0 0.00 7.05 0.00 93 1016.9
20180923134818 79 113 1.0 4.0 0.00 7.05 0.00 94 1017.2
20180923134537 78 106 1.0 5.0 0.00 7.05 0.00 94 1016.9
20180923134332 78 303 1.0 6.0 0.00 7.05 0.00 94 1017.3
20180923134037 78 126 1.0 5.0 0.00 7.05 0.00 94 1016.9
20180923133818 78 132 2.0 6.0 0.00 7.05 0.00 94 1017.3
20180923133537 77 123 1.0 4.0 0.00 7.05 0.00 95 1016.9
20180923133327 77 131 1.0 5.0 0.00 7.05 0.00 95 1017.4
20180923133033 77 103 1.0 4.0 0.00 7.05 0.00 95 1016.9
20180923132815 77 103 2.0 4.0 0.00 7.05 0.00 95 1017.3
20180923132533 77 119 1.0 4.0 0.00 7.05 0.00 96 1016.9
20180923132314 77 136 1.0 4.0 0.00 7.05 0.00 96 1017.2
20180923132032 77 126 1.0 4.0 0.00 7.05 0.00 96 1016.8
20180923131826 76 28 1.0 3.0 0.00 7.05 0.00 97 1017.2
20180923131531 76 128 0.0 2.0 0.00 7.05 0.00 98 1016.8
20180923131333 76 130 0.0 2.0 0.00 7.05 0.00 99 1017.2
20180923131031 76 145 0.0 3.0 0.00 7.05 0.00 100 1016.8
20180923130815 76 178 0.0 3.0 0.00 7.05 0.00 100 1017.1
20180923130532 75 124 0.0 3.0 0.00 7.05 0.00 100 1016.8
20180923130318 75 117 1.0 1.0 0.00 7.05 0.00 100 1017.1
20180923130030 75 142 0.0 1.0 0.00 7.05 0.00 100 1016.7
20180923125830 75 142 0.0 0.0 0.00 7.05 0.00 100 1017.1
20180923125515 75 142 0.0 0.0 0.00 7.05 0.00 100 1016.7
20180923125318 75 142 0.0 0.0 0.00 7.05 0.00 100 1017.1
20180923124939 74 142 0.0 1.0 0.00 7.05 0.00 100 1016.7
20180923124827 74 142 0.0 1.0 0.00 7.05 0.00 100 1017.1
20180923124437 74 142 0.0 1.0 0.00 7.05 0.00 100 1016.6
20180923124317 73 142 0.0 1.0 0.00 7.05 0.00 100 1017.0
20180923123935 73 223 0.0 1.0 0.00 7.05 0.00 100 1016.5
20180923123819 73 224 0.0 1.0 0.00 7.05 0.00 100 1017.0
20180923123434 73 224 0.0 1.0 0.00 7.05 0.00 100 1016.4
20180923123333 72 224 0.0 1.0 0.00 7.05 0.00 100 1016.9
20180923122931 72 224 0.0 0.0 0.00 7.05 0.00 100 1016.4
20180923122823 72 224 0.0 0.0 0.00 7.05 0.00 100 1016.9
20180923122429 72 224 0.0 0.0 0.00 7.05 0.00 100 1016.4
20180923122328 72 224 0.0 0.0 0.00 7.05 0.00 100 1016.8
20180923121927 71 224 0.0 0.0 0.00 7.05 0.00 100 1016.3
20180923121825 71 224 0.0 0.0 0.00 7.05 0.00 100 1016.8
20180923121413 71 224 0.0 0.0 0.00 7.05 0.00 100 1016.3
20180923121328 71 224 0.0 0.0 0.00 7.05 0.00 100 1016.8
20180923120909 71 224 0.0 0.0 0.00 7.05 0.00 100 1016.2
20180923120823 71 224 0.0 0.0 0.00 7.05 0.00 100 1016.6
20180923120405 71 224 0.0 0.0 0.00 7.05 0.00 100 1016.2
20180923120319 71 224 0.0 0.0 0.00 7.05 0.00 100 1016.6
20180923115906 71 224 0.0 0.0 0.00 7.05 0.00 100 1016.2
20180923115347 71 224 0.0 0.0 0.00 7.05 0.00 100 1016.2
20180923115321 71 224 0.0 0.0 0.00 7.05 0.00 100 1016.6
20180923114839 71 224 0.0 0.0 0.00 7.05 0.00 100 1016.0
20180923114835 71 224 0.0 0.0 0.00 7.05 0.00 100 1016.5
20180923114332 71 224 0.0 0.0 0.00 7.05 0.00 100 1016.1
20180923114327 71 224 0.0 0.0 0.00 7.05 0.00 100 1016.5
20180923113819 71 224 0.0 0.0 0.00 7.05 0.00 100 1015.9
20180923113815 71 224 0.0 0.0 0.00 7.05 0.00 100 1016.4
20180923113320 71 224 0.0 0.0 0.00 7.05 0.00 100 1015.8
20180923113315 71 224 0.0 0.0 0.00 7.05 0.00 100 1016.3
20180923112828 71 224 0.0 0.0 0.00 7.05 0.00 100 1016.2
20180923112817 71 224 0.0 0.0 0.00 7.05 0.00 100 1015.7
20180923112317 71 224 0.0 0.0 0.00 7.05 0.00 100 1016.2
20180923112307 71 224 0.0 0.0 0.00 7.05 0.00 100 1015.9
20180923111818 71 224 0.0 0.0 0.00 7.05 0.00 100 1016.2
20180923111807 71 224 0.0 0.0 0.00 7.05 0.00 100 1015.7
20180923111324 71 224 0.0 0.0 0.00 7.05 0.00 100 1016.1
20180923111304 71 224 0.0 0.0 0.00 7.05 0.00 100 1015.6
20180923110823 71 224 0.0 0.0 0.00 7.05 0.00 100 1016.1
20180923110758 71 224 0.0 0.0 0.00 7.05 0.00 100 1015.5
20180923110327 71 224 0.0 0.0 0.00 7.05 0.00 100 1016.1
20180923110237 71 224 0.0 0.0 0.00 7.05 0.00 100 1015.5
20180923105823 71 224 0.0 0.0 0.00 7.05 0.00 100 1016.0
20180923105737 71 224 0.0 0.0 0.00 7.05 0.00 100 1015.4
20180923105313 71 224 0.0 0.0 0.00 7.05 0.00 100 1015.9
20180923105237 71 224 0.0 0.0 0.00 7.05 0.00 100 1015.4
20180923104825 71 224 0.0 0.0 0.00 7.05 0.00 100 1015.8
20180923104737 71 224 0.0 0.0 0.00 7.05 0.00 100 1015.3
20180923104329 71 224 0.0 0.0 0.00 7.05 0.00 100 1015.8
20180923104237 71 224 0.0 0.0 0.00 7.05 0.00 100 1015.2
20180923103822 71 224 0.0 0.0 0.00 7.05 0.00 100 1015.7
20180923103729 71 224 0.0 0.0 0.00 7.05 0.00 100 1015.2
20180923103331 71 224 0.0 0.0 0.00 7.05 0.00 100 1015.6
20180923103219 71 224 0.0 0.0 0.00 7.05 0.00 100 1015.0
20180923102813 71 224 0.0 0.0 0.00 7.05 0.00 100 1015.6
20180923102719 71 224 0.0 0.0 0.00 7.05 0.00 100 1015.0
20180923102319 71 224 0.0 0.0 0.00 7.05 0.00 100 1015.5
20180923102217 71 224 0.0 0.0 0.00 7.05 0.00 100 1015.0
20180923101828 71 224 0.0 0.0 0.00 7.05 0.00 100 1015.5
20180923101702 71 224 0.0 0.0 0.00 7.05 0.00 100 1015.0
20180923101331 71 224 0.0 0.0 0.00 7.05 0.00 100 1015.5
20180923101149 71 224 0.0 0.0 0.00 7.05 0.00 100 1015.0
20180923100820 71 224 0.0 0.0 0.00 7.05 0.00 100 1015.4
20180923100645 71 224 0.0 0.0 0.00 7.05 0.00 100 1014.9
20180923100330 71 224 0.0 0.0 0.00 7.05 0.00 100 1015.5
20180923100136 71 224 0.0 0.0 0.00 7.05 0.00 100 1014.9
20180923095830 71 224 0.0 0.0 0.00 7.05 0.00 100 1015.4
20180923095621 71 224 0.0 0.0 0.00 7.05 0.00 100 1015.0
20180923095331 71 224 0.0 0.0 0.00 7.05 0.00 100 1015.5
20180923095037 71 224 0.0 0.0 0.00 7.05 0.00 100 1015.0
20180923094833 71 224 0.0 0.0 0.00 7.05 0.00 100 1015.4
20180923094537 71 224 0.0 0.0 0.00 7.05 0.00 100 1015.0
20180923094332 71 224 0.0 0.0 0.00 7.05 0.00 100 1015.4
20180923094035 71 224 0.0 0.0 0.00 7.05 0.00 100 1014.9
20180923093822 71 224 0.0 0.0 0.00 7.05 0.00 100 1015.4
20180923093527 71 224 0.0 0.0 0.00 7.05 0.00 100 1014.9
20180923093317 71 224 0.0 0.0 0.00 7.05 0.00 100 1015.4
20180923093015 71 224 0.0 0.0 0.00 7.05 0.00 100 1014.9
20180923092818 71 224 0.0 0.0 0.00 7.05 0.00 100 1015.4
20180923092505 71 224 0.0 0.0 0.00 7.05 0.00 100 1014.9
20180923092323 71 224 0.0 0.0 0.00 7.05 0.00 100 1015.4
20180923092001 71 224 0.0 0.0 0.00 7.05 0.00 100 1014.9
20180923091833 71 224 0.0 0.0 0.00 7.05 0.00 100 1015.4
20180923091437 71 224 0.0 0.0 0.00 7.05 0.00 100 1014.9
20180923091323 71 224 0.0 0.0 0.00 7.05 0.00 100 1015.5
20180923090937 71 224 0.0 0.0 0.00 7.05 0.00 100 1015.0
20180923090831 71 224 0.0 0.0 0.00 7.05 0.00 100 1015.5
20180923090437 71 224 0.0 0.0 0.00 7.05 0.00 100 1015.0
20180923090315 71 224 0.0 0.0 0.00 7.05 0.00 100 1015.4
20180923085918 71 224 0.0 0.0 0.00 7.05 0.00 100 1014.9
20180923085837 71 224 0.0 0.0 0.00 7.05 0.00 100 1015.4
20180923085413 71 224 0.0 0.0 0.00 7.05 0.00 100 1015.0
20180923085328 71 224 0.0 0.0 0.00 7.05 0.00 100 1015.5
20180923084833 71 224 0.0 0.0 0.00 7.05 0.00 100 1015.1
20180923084813 71 224 0.0 0.0 0.00 7.05 0.00 100 1015.6
20180923084325 71 224 0.0 0.0 0.00 7.05 0.00 100 1015.4
20180923084321 71 224 0.0 0.0 0.00 7.05 0.00 100 1015.7
20180923083822 71 224 0.0 0.0 0.00 7.05 0.00 100 1015.1
20180923083817 71 224 0.0 0.0 0.00 7.05 0.00 100 1015.6
20180923083321 71 224 0.0 0.0 0.00 7.05 0.00 100 1015.3
20180923083316 71 224 0.0 0.0 0.00 7.05 0.00 100 1015.6
20180923082827 71 224 0.0 0.0 0.00 7.05 0.00 100 1015.6
20180923082817 71 224 0.0 0.0 0.00 7.05 0.00 100 1015.1
20180923082319 71 224 0.0 0.0 0.00 7.05 0.00 100 1015.7
20180923082308 71 224 0.0 0.0 0.00 7.05 0.00 100 1015.2
20180923081831 71 224 0.0 0.0 0.00 7.05 0.00 100 1015.6
20180923081805 71 224 0.0 0.0 0.00 7.05 0.00 100 1015.1
20180923081319 71 224 0.0 0.0 0.00 7.05 0.00 100 1015.6
20180923081257 71 224 0.0 0.0 0.00 7.05 0.00 100 1015.1
20180923080827 71 224 0.0 0.0 0.00 7.05 0.00 100 1015.6
20180923080737 71 224 0.0 0.0 0.00 7.05 0.00 100 1015.1
20180923080322 71 224 0.0 0.0 0.00 7.05 0.00 100 1015.5
20180923080237 71 224 0.0 0.0 0.00 7.05 0.00 100 1015.0
20180923075825 71 224 0.0 0.0 0.00 7.05 0.00 100 1015.6
20180923075732 71 224 0.0 0.0 0.00 7.05 0.00 100 1015.0
20180923075327 71 224 0.0 0.0 0.00 7.63 0.00 100 1015.6
20180923075231 71 224 0.0 0.0 0.00 7.05 0.00 100 1015.1
20180923074817 71 224 0.0 0.0 0.00 7.63 0.00 100 1015.7
20180923074721 71 224 0.0 0.0 0.00 7.05 0.00 100 1015.2
20180923074329 71 224 0.0 0.0 0.00 7.63 0.00 100 1015.8
20180923074203 71 224 0.0 0.0 0.00 7.05 0.00 100 1015.3
20180923073814 71 224 0.0 0.0 0.00 7.63 0.00 100 1015.9
20180923073648 71 224 0.0 0.0 0.00 7.05 0.00 100 1015.3
20180923073327 71 224 0.0 0.0 0.00 7.63 0.00 100 1015.8
20180923073135 71 224 0.0 0.0 0.00 7.05 0.00 100 1015.3
20180923072821 71 224 0.0 0.0 0.00 7.63 0.00 100 1015.9
20180923072625 71 224 0.0 0.0 0.00 7.05 0.00 100 1015.3
20180923072329 71 224 0.0 0.0 0.00 7.63 0.00 100 1015.9
20180923072108 71 224 0.0 0.0 0.00 7.06 0.00 100 1015.3
20180923071832 71 224 0.0 0.0 0.00 7.63 0.00 100 1016.0
20180923071609 71 224 0.0 0.0 0.00 7.07 0.00 100 1015.4
20180923071315 71 224 0.0 0.0 0.00 7.63 0.00 100 1016.0
20180923071101 71 224 0.0 0.0 0.00 7.08 0.00 100 1015.5
20180923070823 71 224 0.0 0.0 0.00 7.63 0.00 100 1016.0
20180923070524 71 224 0.0 0.0 0.00 7.08 0.00 100 1015.5
20180923070328 71 224 0.0 0.0 0.00 7.63 0.00 100 1016.0
20180923070013 71 224 0.0 0.0 0.00 7.63 0.00 100 1015.5
20180923065831 71 224 0.0 0.0 0.00 7.63 0.00 100 1016.0
20180923065459 71 224 0.0 0.0 0.00 7.63 0.00 100 1015.5
20180923064958 71 224 0.0 0.0 0.00 7.63 0.00 100 1015.5
20180923064816 71 224 0.0 0.0 0.00 9.89 0.00 100 1016.1
20180923064450 71 224 0.0 0.0 0.00 7.63 0.00 100 1015.6
20180923063937 71 224 0.0 0.0 0.00 7.63 0.00 100 1015.7
20180923063829 71 224 0.0 0.0 0.00 9.89 0.00 100 1016.1
20180923063435 71 224 0.0 0.0 0.00 7.68 0.00 100 1015.5
20180923063313 71 224 0.0 0.0 0.00 9.89 0.00 100 1016.1
20180923062932 71 224 0.0 0.0 0.00 7.69 0.00 100 1015.5
20180923062818 71 224 0.0 0.0 0.00 9.89 0.00 100 1016.1
20180923062423 71 224 0.0 0.0 0.00 7.69 0.00 100 1015.5
20180923062322 71 224 0.0 0.0 0.00 9.89 0.00 100 1016.0
20180923061918 71 224 0.0 0.0 0.00 8.05 0.00 100 1015.5
20180923061832 71 224 0.0 0.0 0.00 9.89 0.00 100 1016.0
20180923061355 71 224 0.0 0.0 0.00 8.57 0.00 100 1015.5
20180923061331 71 224 0.0 0.0 0.00 9.89 0.00 100 1016.1
20180923060844 71 224 0.0 0.0 0.00 9.52 0.00 100 1015.8
20180923060839 71 224 0.0 0.0 0.00 9.89 0.00 100 1016.2
20180923060331 71 224 0.0 0.0 0.00 9.73 0.00 99 1015.7
20180923060327 72 224 0.0 0.0 0.00 9.89 0.00 99 1016.2
20180923055829 72 224 0.0 0.0 0.00 9.89 0.00 99 1016.3
20180923055819 72 224 0.0 0.0 0.00 9.89 0.00 99 1015.7
20180923055315 72 224 0.0 0.0 0.00 1.34 0.00 99 1016.3
20180923055304 72 224 0.0 0.0 0.00 9.89 0.00 99 1015.8
20180923054823 72 224 0.0 0.0 0.00 1.34 0.00 99 1016.3
20180923054748 72 224 0.0 0.0 0.00 9.89 0.00 99 1015.7
20180923054328 72 224 0.0 0.0 0.00 1.34 0.00 99 1016.3
20180923054242 72 224 0.0 0.0 0.00 9.89 0.00 99 1015.8
20180923053829 72 224 0.0 0.0 0.00 1.34 0.00 100 1016.4
20180923053723 72 224 0.0 0.0 0.00 1.01 0.00 99 1015.9
20180923053319 72 224 0.0 0.0 0.00 1.34 0.00 99 1016.5
20180923053219 72 224 0.0 0.0 0.00 1.02 0.00 99 1016.0
20180923052815 72 224 0.0 0.0 0.00 1.34 0.00 99 1016.5
20180923052640 72 223 0.0 0.0 0.00 1.05 0.00 99 1016.0
20180923052141 72 224 0.0 0.0 0.00 1.10 0.00 99 1016.0
20180923051818 72 224 0.0 0.0 0.00 1.34 0.00 99 1016.5
20180923051636 72 224 0.0 0.0 0.00 1.12 0.00 99 1016.1
20180923051326 72 224 0.0 0.0 0.00 1.34 0.00 99 1016.6
20180923051130 72 224 0.0 0.0 0.00 1.16 0.00 99 1016.1
20180923050831 72 224 0.0 0.0 0.00 1.34 0.00 99 1016.6
20180923050625 72 224 0.0 0.0 0.00 1.21 0.00 99 1016.0
20180923050320 72 224 0.0 0.0 0.00 1.34 0.00 99 1016.6
20180923050117 72 224 0.0 0.0 0.00 1.28 0.00 99 1016.1
20180923045612 73 224 0.0 0.0 0.00 1.37 1.29 99 1016.1
20180923045316 73 224 0.0 0.0 0.00 1.90 1.34 99 1016.7
20180923045108 73 224 0.0 0.0 0.00 1.44 1.29 99 1016.3
20180923044829 73 224 0.0 0.0 0.00 1.90 1.34 99 1016.7
20180923044602 73 224 0.0 1.0 0.00 1.48 1.29 99 1016.2
20180923044325 73 224 0.0 1.0 0.00 1.90 1.34 99 1016.7
20180923044036 73 224 0.0 1.0 0.00 1.55 1.29 99 1016.2
20180923043814 73 224 0.0 1.0 0.00 1.90 1.34 99 1016.8
20180923043532 73 224 0.0 1.0 0.00 1.63 1.29 99 1016.4
20180923043327 73 224 0.0 1.0 0.00 1.90 1.34 99 1016.9
20180923043029 73 224 0.0 1.0 0.00 1.72 1.29 99 1016.3
20180923042814 73 224 0.0 1.0 0.00 1.90 1.34 99 1016.9
20180923042530 73 224 0.0 0.0 0.00 1.78 1.29 99 1016.4
20180923042324 73 224 0.0 0.0 0.00 1.90 1.34 99 1017.0
20180923042008 73 224 0.0 0.0 0.00 1.80 1.29 99 1016.5
20180923041826 73 224 0.0 0.0 0.00 1.90 1.34 99 1017.0
20180923041458 73 224 0.0 0.0 0.00 1.86 1.29 98 1016.5
20180923041316 73 224 0.0 0.0 0.00 1.90 1.34 98 1017.1
20180923040944 73 224 0.0 0.0 0.00 1.90 1.29 98 1016.6
20180923040821 73 224 0.0 0.0 0.00 1.90 1.34 98 1017.2
20180923040436 73 224 0.0 0.0 0.00 1.90 1.29 98 1016.7
20180923040331 73 224 0.0 0.0 0.00 1.90 1.34 98 1017.2
20180923035935 73 224 0.0 0.0 0.00 1.90 1.29 98 1016.7
20180923035815 73 224 0.0 0.0 0.00 1.90 1.34 98 1017.3
20180923035422 73 224 0.0 0.0 0.00 1.90 1.29 98 1016.8
20180923035328 73 224 0.0 0.0 0.00 2.20 1.34 98 1017.4
20180923034922 73 224 0.0 0.0 0.00 1.90 1.29 98 1016.8
20180923034820 73 224 0.0 0.0 0.00 2.20 1.34 98 1017.4
20180923034350 74 224 0.0 0.0 0.00 1.91 1.29 98 1016.9
20180923033834 74 224 0.0 0.0 0.01 2.20 1.34 98 1017.5
20180923033823 74 224 0.0 0.0 0.01 1.93 1.29 98 1017.1
20180923033334 74 224 0.0 0.0 0.02 2.20 1.34 98 1017.6
20180923033323 74 224 0.0 0.0 0.02 1.97 1.29 98 1017.1
20180923032820 74 224 0.0 1.0 0.34 2.20 1.34 98 1017.5
20180923032809 74 224 0.0 1.0 0.35 1.97 1.29 98 1017.1
20180923032319 74 224 0.0 1.0 0.38 2.20 1.34 98 1017.5
20180923032307 74 224 0.0 1.0 0.48 1.97 1.29 98 1017.0
20180923031820 74 224 0.0 1.0 0.91 2.20 1.34 98 1017.5
20180923031758 74 224 0.0 1.0 1.04 1.97 1.29 98 1017.1
20180923031313 74 224 0.0 0.0 1.32 2.20 1.34 98 1017.5
20180923031248 74 224 0.0 0.0 1.42 2.00 1.29 98 1017.1
20180923030738 74 224 0.0 0.0 1.71 2.04 1.29 97 1017.1
20180923030329 74 224 0.0 0.0 1.99 2.20 1.34 97 1017.5
20180923030224 74 224 0.0 0.0 2.00 2.12 1.29 97 1017.1
20180923025833 74 224 0.0 0.0 2.02 2.20 1.34 97 1017.5
20180923025654 74 224 0.0 0.0 2.02 2.20 1.29 97 1017.1
20180923025332 74 224 0.0 0.0 2.08 2.63 1.34 97 1017.6
20180923025147 74 224 0.0 0.0 2.08 2.24 1.29 97 1017.1
20180923024822 74 224 0.0 0.0 2.09 2.63 1.34 97 1017.6
20180923024634 74 224 0.0 0.0 2.10 2.25 1.29 97 1017.1
20180923024314 74 224 0.0 0.0 2.33 2.63 1.34 97 1017.5
20180923024134 74 224 0.0 0.0 2.38 2.27 1.29 97 1017.0
20180923023832 74 224 0.0 0.0 2.38 2.63 1.34 97 1017.5
20180923023627 74 224 0.0 0.0 2.51 2.31 1.29 97 1017.1
20180923023319 74 224 0.0 0.0 2.51 2.63 1.34 96 1017.5
20180923023118 74 224 0.0 0.0 2.33 2.31 1.27 96 1016.9
20180923022824 75 224 0.0 0.0 2.24 2.60 1.31 96 1017.4
20180923022612 74 224 0.0 0.0 2.49 2.36 1.26 96 1017.0
20180923022334 75 224 0.0 0.0 2.51 2.59 1.30 96 1017.5
20180923022103 75 224 0.0 0.0 2.53 2.35 1.23 96 1017.1
20180923021834 75 224 0.0 0.0 2.47 2.54 1.25 96 1017.6
20180923021556 75 224 0.0 0.0 2.29 2.36 1.17 96 1017.2
20180923021320 75 224 0.0 0.0 2.44 2.50 1.21 96 1017.6
20180923021056 75 224 0.0 0.0 2.50 2.39 1.13 96 1017.1
20180923020831 75 224 0.0 0.0 2.50 2.47 1.17 95 1017.5
20180923020554 75 224 0.0 0.0 2.51 2.39 1.12 95 1017.1
20180923020316 75 224 0.0 0.0 2.27 2.43 1.14 95 1017.4
20180923020053 75 224 0.0 0.0 2.24 2.40 1.09 95 1016.9
20180923015821 75 224 0.0 0.0 2.24 2.43 1.14 95 1017.3
20180923015546 75 224 0.0 0.0 2.20 2.43 1.09 94 1016.9
20180923015321 76 224 0.0 0.0 2.18 2.47 1.13 94 1017.4
20180923015040 76 224 0.0 0.0 2.17 2.43 1.08 94 1017.0
20180923014816 76 224 0.0 0.0 2.17 2.46 1.13 94 1017.4
20180923014540 76 224 0.0 0.0 2.20 2.42 1.08 94 1016.9
20180923014324 76 224 0.0 0.0 2.02 2.44 1.11 94 1017.4
20180923014034 76 224 0.0 0.0 1.97 2.40 1.05 93 1016.9
20180923013834 76 224 0.0 0.0 1.96 2.43 1.10 93 1017.4
20180923013532 76 224 0.0 0.0 1.83 2.39 1.04 92 1016.9
20180923013320 76 224 0.0 0.0 1.82 2.42 1.09 92 1017.3
20180923013028 77 224 0.0 0.0 1.77 2.41 1.04 92 1016.8
20180923012833 77 224 0.0 0.0 1.76 2.41 1.08 92 1017.2
20180923012522 77 224 0.0 0.0 1.49 2.39 1.01 92 1016.7
20180923012322 77 224 0.0 0.0 1.42 2.38 1.05 91 1017.1
20180923012012 77 224 0.0 0.0 1.17 2.36 9.77 92 1016.7
20180923011818 77 224 0.0 0.0 0.87 2.33 1.00 91 1017.1
20180923011508 77 224 0.0 0.0 0.68 2.31 9.38 92 1016.6
20180923011326 77 224 0.0 0.0 0.55 2.29 9.65 92 1017.0
20180923011006 78 224 0.0 1.0 0.22 2.26 8.82 91 1016.5
20180923010830 78 224 0.0 1.0 0.19 2.26 9.29 92 1017.0
20180923010438 78 224 0.0 1.0 0.09 2.25 8.69 91 1016.6
20180923010314 78 236 0.0 1.0 0.09 2.25 9.19 91 1017.0
20180923005936 78 236 0.0 1.0 0.09 2.25 8.69 90 1016.6
20180923005829 78 265 0.0 1.0 0.09 2.25 9.19 90 1017.1
20180923005434 79 227 0.0 1.0 0.09 2.25 8.69 90 1016.6
20180923005330 79 227 0.0 1.0 0.09 2.25 9.19 90 1017.1
20180923004920 79 227 0.0 1.0 0.09 2.25 8.69 90 1016.7
20180923004818 79 227 0.0 1.0 0.09 2.25 9.19 90 1017.0
20180923004414 79 227 0.0 1.0 0.00 2.24 8.60 89 1016.6
20180923004328 79 227 0.0 0.0 0.00 2.24 9.10 89 1016.8
20180923003914 79 227 0.0 2.0 0.00 2.24 8.60 89 1016.5
20180923003828 79 227 0.0 2.0 0.00 2.24 9.10 89 1016.8
20180923003341 79 227 1.0 3.0 0.00 2.24 8.60 89 1016.5
20180923003336 79 227 0.0 2.0 0.00 2.24 9.10 89 1016.8
20180923002834 79 162 1.0 3.0 0.00 2.24 8.60 89 1016.3
20180923002830 79 162 0.0 3.0 0.00 2.24 9.10 89 1016.7
20180923002330 79 109 0.0 2.0 0.00 2.24 8.60 88 1016.3
20180923002314 79 128 1.0 2.0 0.00 2.24 9.10 89 1016.6
20180923001836 79 225 0.0 1.0 0.00 2.24 9.10 88 1016.5
20180923001825 79 225 0.0 1.0 0.00 2.24 8.60 88 1016.2
20180923001319 80 225 0.0 1.0 0.00 2.24 9.10 87 1016.5
20180923001309 80 225 0.0 1.0 0.00 2.24 8.60 87 1016.1
20180923000834 80 210 0.0 2.0 0.00 2.24 9.10 86 1016.4
20180923000806 80 210 0.0 2.0 0.00 2.24 8.60 86 1016.1
20180923000316 80 170 0.0 2.0 0.00 2.24 9.10 86 1016.4
20180923000237 80 170 0.0 2.0 0.00 2.24 8.60 86 1016.0
20180922235823 81 205 0.0 2.0 0.00 2.24 9.10 85 1016.4
20180922235736 80 205 0.0 2.0 0.00 2.24 8.60 85 1016.0
20180922235314 80 107 0.0 2.0 0.00 2.24 9.10 86 1016.3
20180922235236 80 232 0.0 2.0 0.00 2.24 8.60 86 1016.0
20180922234824 81 175 0.0 0.0 0.00 2.24 9.10 85 1016.3
20180922234735 81 175 0.0 0.0 0.00 2.24 8.60 85 1015.9
20180922234318 81 153 0.0 0.0 0.00 2.24 9.10 85 1016.3
20180922234235 81 153 0.0 0.0 0.00 2.24 8.60 84 1015.9
20180922233827 82 155 0.0 1.0 0.00 2.24 9.10 84 1016.2
20180922233736 82 155 0.0 1.0 0.00 2.24 8.60 84 1015.8
20180922233328 82 155 0.0 1.0 0.00 2.24 9.10 82 1016.1
20180922233235 82 155 0.0 1.0 0.00 2.24 8.60 83 1015.8
20180922232825 82 155 0.0 1.0 0.00 2.24 9.10 82 1016.1
20180922232735 82 155 0.0 2.0 0.00 2.24 8.60 82 1015.8
20180922232314 83 136 0.0 2.0 0.00 2.24 9.10 81 1016.1
20180922232234 83 136 0.0 2.0 0.00 2.24 8.60 81 1015.8
20180922231832 83 117 0.0 2.0 0.00 2.24 9.10 80 1016.1
20180922231734 83 124 1.0 4.0 0.00 2.24 8.60 80 1015.8
20180922231337 84 124 0.0 4.0 0.00 2.24 9.10 78 1016.0
20180922231234 84 200 1.0 4.0 0.00 2.24 8.60 77 1015.6
20180922230819 84 142 0.0 3.0 0.00 2.24 9.10 76 1015.9
20180922230723 84 173 0.0 2.0 0.00 2.24 8.60 77 1015.6
20180922230328 85 167 0.0 2.0 0.00 2.24 9.10 74 1015.9
20180922230210 85 167 0.0 2.0 0.00 2.24 8.60 74 1015.6
20180922225829 85 161 1.0 3.0 0.00 2.24 9.10 72 1015.9
20180922225709 85 128 0.0 3.0 0.00 2.24 8.60 72 1015.5
20180922225333 86 161 0.0 3.0 0.00 2.24 9.10 72 1015.7
20180922225211 86 153 0.0 3.0 0.00 2.24 8.60 70 1015.4
20180922224829 86 176 0.0 3.0 0.00 2.24 9.10 69 1015.7
20180922224700 87 172 1.0 3.0 0.00 2.24 8.60 70 1015.3
20180922224336 87 192 1.0 3.0 0.00 2.24 9.10 69 1015.8
20180922224159 87 163 1.0 3.0 0.00 2.24 8.60 68 1015.5
20180922223822 87 219 1.0 3.0 0.00 2.24 9.10 67 1015.8
20180922223657 87 150 1.0 3.0 0.00 2.24 8.60 67 1015.5
20180922223333 87 150 1.0 5.0 0.00 2.24 9.10 66 1015.8
20180922223156 87 162 2.0 6.0 0.00 2.24 8.60 66 1015.5
20180922222827 88 57 2.0 7.0 0.00 2.24 9.10 66 1015.6
20180922222656 88 145 2.0 6.0 0.00 2.24 8.60 66 1015.3
20180922222326 88 120 1.0 4.0 0.00 2.24 9.10 67 1015.6
20180922222155 88 130 1.0 5.0 0.00 2.24 8.60 69 1015.3
20180922221825 88 200 0.0 4.0 0.00 2.24 9.10 70 1015.6
20180922221651 88 165 1.0 6.0 0.00 2.24 8.60 69 1015.3
20180922221326 88 113 1.0 5.0 0.00 2.24 9.10 68 1015.5
20180922221152 88 134 2.0 6.0 0.00 2.24 8.60 68 1015.3
20180922220822 88 128 2.0 6.0 0.00 2.24 9.10 67 1015.5
20180922220641 88 133 2.0 8.0 0.00 2.24 8.60 68 1015.3
20180922220329 88 169 2.0 8.0 0.00 2.24 9.10 68 1015.4
20180922220139 88 142 2.0 8.0 0.00 2.24 8.60 67 1015.2
20180922215830 89 148 3.0 8.0 0.00 2.24 9.10 67 1015.4
20180922215640 89 289 1.0 5.0 0.00 2.24 8.60 70 1015.2
20180922215332 89 157 1.0 5.0 0.00 2.24 9.10 69 1015.4
20180922215139 89 100 1.0 5.0 0.00 2.24 8.60 69 1015.3
20180922214820 89 146 1.0 7.0 0.00 2.24 9.10 68 1015.5
20180922214638 89 197 2.0 7.0 0.00 2.24 8.60 68 1015.2
20180922214331 89 140 1.0 7.0 0.00 2.24 9.10 66 1015.5
20180922214138 89 118 2.0 7.0 0.00 2.24 8.60 67 1015.2
20180922213836 89 151 1.0 4.0 0.00 2.24 9.10 67 1015.5
20180922213635 89 161 2.0 4.0 0.00 2.24 8.60 66 1015.2
20180922213333 89 155 3.0 4.0 0.00 2.24 9.10 65 1015.5
20180922213133 89 138 2.0 8.0 0.00 2.24 8.60 66 1015.3
20180922212834 89 89 2.0 7.0 0.00 2.24 9.10 66 1015.5
20180922212634 89 166 2.0 8.0 0.00 2.24 8.60 66 1015.2
20180922212317 89 162 2.0 8.0 0.00 2.24 9.10 68 1015.4
20180922212133 89 154 2.0 9.0 0.00 2.24 8.60 67 1015.2
20180922211822 89 181 2.0 9.0 0.00 2.24 9.10 67 1015.4
20180922211633 89 215 2.0 9.0 0.00 2.24 8.60 67 1015.1
20180922211324 89 148 2.0 7.0 0.00 2.24 9.10 69 1015.3
20180922211134 89 185 2.0 7.0 0.00 2.24 8.60 69 1015.1
20180922210819 89 130 1.0 7.0 0.00 2.24 9.10 68 1015.4
20180922210633 89 130 2.0 7.0 0.00 2.24 8.60 67 1015.1
20180922210327 89 78 2.0 5.0 0.00 2.24 9.10 68 1015.4
20180922210129 89 143 2.0 6.0 0.00 2.24 8.60 68 1015.2
20180922205630 89 250 2.0 6.0 0.00 2.24 8.60 67 1015.2
20180922205323 89 217 1.0 6.0 0.00 2.24 9.10 69 1015.4
20180922205129 89 232 3.0 6.0 0.00 2.24 8.60 69 1015.2
20180922204832 89 198 3.0 6.0 0.00 2.24 9.10 68 1015.6
20180922204627 89 193 3.0 9.0 0.00 2.24 8.60 68 1015.2
20180922204330 89 92 2.0 9.0 0.00 2.24 9.10 68 1015.6
20180922204128 89 113 3.0 9.0 0.00 2.24 8.60 68 1015.3
20180922203826 89 165 4.0 14.0 0.00 2.24 9.10 67 1015.6
20180922203626 89 163 3.0 13.0 0.00 2.24 8.60 67 1015.3
20180922203318 88 29 3.0 14.0 0.00 2.24 9.10 67 1015.6
20180922203125 88 113 4.0 13.0 0.00 2.24 8.60 67 1015.4
20180922202835 89 236 2.0 9.0 0.00 2.24 9.10 67 1015.7
20180922202626 89 281 4.0 12.0 0.00 2.24 8.60 68 1015.3
20180922202322 89 181 5.0 13.0 0.00 2.24 9.10 67 1015.6
20180922202125 89 133 3.0 12.0 0.00 2.24 8.60 66 1015.3
20180922201813 89 161 4.0 9.0 0.00 2.24 9.10 66 1015.6
20180922201623 89 212 3.0 10.0 0.00 2.24 8.60 65 1015.3
20180922201330 89 107 3.0 13.0 0.00 2.24 9.10 68 1015.6
20180922201123 89 167 3.0 13.0 0.00 2.24 8.60 68 1015.2
20180922200818 89 137 2.0 13.0 0.00 2.24 9.10 68 1015.5
20180922200624 89 203 4.0 13.0 0.00 2.24 8.60 68 1015.3
20180922200318 89 175 4.0 10.0 0.00 2.24 9.10 67 1015.8
20180922200121 89 50 3.0 10.0 0.00 2.24 8.60 66 1015.5
20180922195820 89 171 3.0 9.0 0.00 2.24 9.10 66 1015.7
20180922195621 89 132 3.0 9.0 0.00 2.24 8.60 66 1015.4
20180922195316 89 81 2.0 8.0 0.09 2.24 9.10 68 1015.8
20180922195122 89 209 3.0 8.0 0.45 2.24 8.60 67 1015.5
20180922194823 89 174 3.0 10.0 0.75 2.24 9.10 65 1015.9
20180922194621 88 122 3.0 10.0 0.86 2.24 8.60 67 1015.6
20180922194322 88 200 3.0 10.0 0.95 2.24 9.10 66 1016.0
20180922194053 88 135 3.0 10.0 0.95 2.24 8.60 66 1015.8
20180922193828 88 112 3.0 8.0 0.95 2.24 9.10 66 1016.1
20180922193552 88 162 3.0 8.0 0.95 2.24 8.60 66 1015.7
20180922193324 88 45 4.0 8.0 0.95 2.24 9.10 68 1016.1
20180922193049 88 159 2.0 8.0 0.95 2.24 8.60 70 1015.8
20180922192833 88 134 2.0 7.0 0.95 2.24 9.10 71 1016.2
20180922192549 87 148 3.0 8.0 1.00 2.24 8.60 72 1015.9
20180922192315 87 175 4.0 8.0 1.15 2.24 9.10 72 1016.3
20180922192050 86 101 2.0 7.0 1.30 2.24 8.60 73 1016.1
20180922191819 86 115 2.0 7.0 1.33 2.24 9.10 74 1016.5
20180922191549 87 136 3.0 9.0 1.51 2.24 8.60 72 1016.2
20180922191315 87 210 3.0 9.0 1.54 2.24 9.10 72 1016.4
20180922191049 87 176 3.0 9.0 1.54 2.24 8.60 72 1016.1
20180922190816 88 167 4.0 9.0 1.54 2.24 9.10 69 1016.5
20180922190548 89 184 3.0 8.0 1.54 2.24 8.60 68 1016.1
20180922190329 89 128 3.0 7.0 1.54 2.24 9.10 66 1016.3
20180922190047 90 82 2.0 7.0 1.54 2.24 8.60 64 1016.2
20180922185833 90 78 3.0 7.0 1.54 2.24 9.10 65 1016.4
20180922185547 90 90 2.0 7.0 1.50 2.23 8.58 64 1016.2
20180922185336 90 118 1.0 7.0 1.45 2.23 9.01 66 1016.5
20180922185045 90 178 1.0 7.0 1.09 2.19 8.15 67 1016.4
20180922184832 90 187 2.0 7.0 0.79 2.16 8.35 66 1016.6
20180922184543 90 144 1.0 7.0 0.60 2.14 7.69 67 1016.5
20180922184332 90 227 1.0 6.0 0.59 2.14 8.15 68 1016.6
20180922184043 90 228 1.0 5.0 0.59 2.14 7.65 66 1016.5
20180922183830 90 153 1.0 6.0 0.59 2.14 8.15 64 1016.7
20180922183543 90 167 2.0 6.0 0.59 2.14 7.65 65 1016.6
20180922183316 90 218 1.0 6.0 0.59 2.14 8.15 67 1016.8
20180922183041 90 180 2.0 8.0 0.59 2.14 7.65 65 1016.7
20180922182820 90 94 3.0 8.0 0.59 2.14 8.15 64 1016.9
20180922182541 91 159 2.0 11.0 0.54 2.14 7.61 66 1016.7
20180922182328 90 103 2.0 11.0 0.34 2.12 7.90 68 1016.9
20180922182038 90 189 2.0 11.0 0.24 2.11 7.30 69 1016.7
20180922181818 90 173 2.0 11.0 0.12 2.10 7.68 65 1017.0
20180922181534 90 148 3.0 8.0 0.03 2.09 7.09 67 1016.9
20180922181330 90 216 3.0 8.0 0.00 2.08 7.56 67 1017.1
20180922181031 90 221 2.0 8.0 0.00 2.08 7.06 67 1017.0
20180922180818 90 167 3.0 8.0 0.00 2.08 7.56 66 1017.2
20180922180531 90 179 2.0 10.0 0.00 2.08 7.06 68 1017.1
20180922180321 90 189 1.0 6.0 0.00 2.08 7.56 69 1017.3
20180922180031 90 89 2.0 10.0 0.00 2.08 7.06 66 1017.1
20180922175819 90 114 1.0 10.0 0.00 2.08 7.56 67 1017.2
20180922175532 90 105 3.0 10.0 0.00 2.08 7.06 69 1017.0
20180922175322 89 113 2.0 10.0 0.00 2.37 7.56 70 1017.4
20180922175031 89 161 2.0 10.0 0.00 2.08 7.06 69 1017.1
20180922174826 89 135 4.0 6.0 0.00 2.37 7.56 71 1017.4
20180922174531 88 78 2.0 6.0 0.01 2.08 7.06 71 1017.1
20180922174333 88 150 2.0 5.0 0.01 2.37 7.56 71 1017.5